createdAt,value
2018-01-21T00:00:07.802Z,5.27
2018-01-21T00:01:17.960Z,5.28
2018-01-21T00:02:28.009Z,5.37
2018-01-21T00:03:37.545Z,5.33
2018-01-21T00:04:47.115Z,5.3
2018-01-21T00:05:57.141Z,5.23
2018-01-21T00:07:07.198Z,5.21
2018-01-21T00:08:17.262Z,5.24
2018-01-21T00:09:27.304Z,5.2
2018-01-21T00:10:37.426Z,5.21
2018-01-21T00:11:47.480Z,5.13
2018-01-21T00:12:57.522Z,5.16
2018-01-21T00:14:07.607Z,5.16
2018-01-21T00:15:17.659Z,5.09
2018-01-21T00:16:27.830Z,5.06
2018-01-21T00:17:37.862Z,5.16
2018-01-21T00:18:47.924Z,5.13
2018-01-21T00:19:57.773Z,5.09
2018-01-21T00:21:07.558Z,5.06
2018-01-21T00:22:18.492Z,5.16
2018-01-21T00:23:28.549Z,5.09
2018-01-21T00:24:38.628Z,5.05
2018-01-21T00:25:48.668Z,5.13
2018-01-21T00:26:58.726Z,5.15
2018-01-21T00:28:08.504Z,5.12
2018-01-21T00:29:18.321Z,5.13
2018-01-21T00:30:28.129Z,5.03
2018-01-21T00:31:38.916Z,5.08
2018-01-21T00:32:49.806Z,5.06
2018-01-21T00:33:59.611Z,5.02
2018-01-21T00:35:09.670Z,5.09
2018-01-21T00:36:19.735Z,5.09
2018-01-21T00:37:29.809Z,5.09
2018-01-21T00:38:39.864Z,5.09
2018-01-21T00:39:49.711Z,5.05
2018-01-21T00:40:59.763Z,5.13
2018-01-21T00:42:09.824Z,5.08
2018-01-21T00:43:19.871Z,5.13
2018-01-21T00:44:29.920Z,5.18
2018-01-21T00:45:41.267Z,5.08
2018-01-21T00:46:51.324Z,5.15
2018-01-21T00:48:01.834Z,5.15
2018-01-21T00:49:11.630Z,5.21
2018-01-21T00:50:21.737Z,5.2
2018-01-21T00:51:31.504Z,5.13
2018-01-21T00:52:41.541Z,5.26
2018-01-21T00:53:51.328Z,5.26
2018-01-21T00:55:01.373Z,5.2
2018-01-21T00:56:11.435Z,5.23
2018-01-21T00:57:21.274Z,5.24
2018-01-21T00:58:31.338Z,5.2
2018-01-21T00:59:41.400Z,5.27
2018-01-21T01:00:51.462Z,5.26
2018-01-21T01:02:01.572Z,5.36
2018-01-21T01:03:11.615Z,5.2
2018-01-21T01:04:21.663Z,5.31
2018-01-21T01:05:31.454Z,5.34
2018-01-21T01:06:41.553Z,5.26
2018-01-21T01:07:51.596Z,5.37
2018-01-21T01:09:01.694Z,5.33
2018-01-21T01:10:11.767Z,5.3
2018-01-21T01:11:21.813Z,5.41
2018-01-21T01:12:31.855Z,5.34
2018-01-21T01:13:41.659Z,5.37
2018-01-21T01:14:51.743Z,5.3
2018-01-21T01:16:01.561Z,5.41
2018-01-21T01:17:11.077Z,5.33
2018-01-21T01:18:22.214Z,5.42
2018-01-21T01:19:32.259Z,5.37
2018-01-21T01:20:41.560Z,5.34
2018-01-21T01:21:51.093Z,5.24
2018-01-21T01:23:01.176Z,5.41
2018-01-21T01:24:11.228Z,5.41
2018-01-21T01:25:21.284Z,5.42
2018-01-21T01:26:31.326Z,5.49
2018-01-21T01:27:41.368Z,5.41
2018-01-21T01:28:51.644Z,5.42
2018-01-21T01:30:01.688Z,5.51
2018-01-21T01:31:11.733Z,5.45
2018-01-21T01:32:21.525Z,5.45
2018-01-21T01:33:31.308Z,5.45
2018-01-21T01:34:41.340Z,5.41
2018-01-21T01:35:51.391Z,5.39
2018-01-21T01:37:01.238Z,5.46
2018-01-21T01:38:11.079Z,5.48
2018-01-21T01:39:20.865Z,5.36
2018-01-21T01:40:30.930Z,5.33
2018-01-21T01:41:40.971Z,5.41
2018-01-21T01:42:50.764Z,5.46
2018-01-21T01:44:00.809Z,5.39
2018-01-21T01:45:10.860Z,5.37
2018-01-21T01:46:20.647Z,5.36
2018-01-21T01:47:30.716Z,5.39
2018-01-21T01:48:40.499Z,5.41
2018-01-21T01:49:50.607Z,5.41
2018-01-21T01:51:00.394Z,5.44
2018-01-21T01:52:11.035Z,5.48
2018-01-21T01:53:20.848Z,5.39
2018-01-21T01:54:30.634Z,5.37
2018-01-21T01:55:40.725Z,5.36
2018-01-21T01:56:50.765Z,5.41
2018-01-21T01:58:00.283Z,5.44
2018-01-21T01:59:10.098Z,5.33
2018-01-21T02:00:20.149Z,5.31
2018-01-21T02:01:30.190Z,5.34
2018-01-21T02:02:40.230Z,5.28
2018-01-21T02:03:50.258Z,5.3
2018-01-21T02:05:00.309Z,5.16
2018-01-21T02:06:10.351Z,5.13
2018-01-21T02:07:20.388Z,5.08
2018-01-21T02:08:30.424Z,5.05
2018-01-21T02:09:40.214Z,5.1
2018-01-21T02:10:50.259Z,5.12
2018-01-21T02:12:00.295Z,5
2018-01-21T02:13:10.390Z,4.97
2018-01-21T02:14:20.422Z,5.06
2018-01-21T02:15:30.468Z,5.05
2018-01-21T02:16:40.518Z,5.08
2018-01-21T02:17:50.568Z,5.06
2018-01-21T02:19:00.608Z,5
2018-01-21T02:20:10.405Z,5.03
2018-01-21T02:21:20.445Z,5.08
2018-01-21T02:22:30.481Z,5.09
2018-01-21T02:23:40.518Z,5.1
2018-01-21T02:24:50.305Z,5.12
2018-01-21T02:26:00.361Z,4.95
2018-01-21T02:27:10.402Z,5.1
2018-01-21T02:28:20.454Z,5.03
2018-01-21T02:29:29.964Z,5.13
2018-01-21T02:30:40.064Z,5.05
2018-01-21T02:31:49.869Z,5.13
2018-01-21T02:32:59.908Z,5.05
2018-01-21T02:34:09.683Z,5.13
2018-01-21T02:35:19.473Z,5.13
2018-01-21T02:36:29.319Z,5.05
2018-01-21T02:37:39.353Z,5.09
2018-01-21T02:38:49.407Z,5.16
2018-01-21T02:39:59.461Z,5.21
2018-01-21T02:41:09.517Z,5.31
2018-01-21T02:42:19.611Z,5.34
2018-01-21T02:43:29.649Z,5.26
2018-01-21T02:44:39.702Z,5.45
2018-01-21T02:45:49.775Z,5.36
2018-01-21T02:46:59.824Z,5.49
2018-01-21T02:48:09.711Z,5.45
2018-01-21T02:49:19.500Z,5.46
2018-01-21T02:50:29.555Z,5.45
2018-01-21T02:51:39.595Z,5.41
2018-01-21T02:52:49.640Z,5.48
2018-01-21T02:53:59.480Z,5.46
2018-01-21T02:55:10.130Z,5.52
2018-01-21T02:56:20.175Z,5.54
2018-01-21T02:57:30.213Z,5.59
2018-01-21T02:58:39.995Z,5.62
2018-01-21T02:59:50.042Z,5.59
2018-01-21T03:01:00.102Z,5.69
2018-01-21T03:02:10.151Z,5.6
2018-01-21T03:03:20.186Z,5.72
2018-01-21T03:34:41.474Z,2.96
2018-01-21T03:35:50.733Z,3.03
2018-01-21T03:37:00.760Z,2.98
2018-01-21T03:38:10.541Z,3.02
2018-01-21T03:39:20.312Z,3.06
2018-01-21T03:40:30.399Z,3.13
2018-01-21T03:41:40.207Z,3.32
2018-01-21T03:42:50.271Z,3.42
2018-01-21T03:44:00.298Z,3.54
2018-01-21T03:45:10.338Z,3.74
2018-01-21T03:46:20.113Z,3.79
2018-01-21T03:47:29.898Z,3.97
2018-01-21T03:48:39.426Z,4.21
2018-01-21T03:49:49.473Z,4.29
2018-01-21T03:50:59.250Z,4.33
2018-01-21T03:52:09.289Z,4.56
2018-01-21T03:53:19.325Z,4.6
2018-01-21T03:54:29.403Z,4.85
2018-01-21T03:55:39.194Z,4.98
2018-01-21T03:56:49.287Z,5.09
2018-01-21T03:57:59.129Z,5.16
2018-01-21T03:59:09.180Z,5.21
2018-01-21T04:00:18.963Z,5.36
2018-01-21T04:01:28.785Z,5.34
2018-01-21T04:02:38.812Z,5.44
2018-01-21T04:03:48.863Z,5.52
2018-01-21T04:04:58.896Z,5.51
2018-01-21T04:06:08.941Z,5.69
2018-01-21T04:07:18.469Z,5.77
2018-01-21T04:08:28.517Z,5.78
2018-01-21T04:09:38.572Z,5.81
2018-01-21T04:10:48.370Z,5.87
2018-01-21T04:11:58.157Z,5.96
2018-01-21T04:13:08.208Z,5.87
2018-01-21T04:14:18.248Z,5.98
2018-01-21T04:15:27.822Z,5.88
2018-01-21T04:16:37.878Z,5.98
2018-01-21T04:17:47.914Z,6
2018-01-21T04:18:57.962Z,6
2018-01-21T04:20:07.743Z,6.05
2018-01-21T04:21:17.524Z,6.1
2018-01-21T04:22:27.312Z,6.18
2018-01-21T04:23:37.377Z,6.21
2018-01-21T04:24:47.409Z,6.2
2018-01-21T04:25:57.192Z,6.17
2018-01-21T04:27:07.310Z,6.17
2018-01-21T04:28:17.366Z,6.15
2018-01-21T04:29:27.416Z,6.24
2018-01-21T04:30:37.466Z,6.29
2018-01-21T04:31:47.504Z,6.26
2018-01-21T04:32:57.552Z,6.33
2018-01-21T04:34:07.328Z,6.34
2018-01-21T04:35:17.367Z,6.31
2018-01-21T04:36:27.158Z,6.29
2018-01-21T04:37:36.936Z,6.29
2018-01-21T04:38:46.988Z,6.29
2018-01-21T04:39:57.047Z,6.24
2018-01-21T04:41:07.075Z,6.26
2018-01-21T04:42:16.862Z,6.2
2018-01-21T04:43:26.662Z,6.15
2018-01-21T04:44:36.757Z,6.21
2018-01-21T04:45:46.556Z,6.06
2018-01-21T04:46:56.599Z,6.09
2018-01-21T04:48:06.639Z,6.03
2018-01-21T04:49:16.690Z,6.03
2018-01-21T04:50:26.728Z,6.05
2018-01-21T04:51:36.506Z,6.05
2018-01-21T04:52:46.562Z,6.1
2018-01-21T04:53:56.325Z,6.05
2018-01-21T04:55:06.111Z,6.06
2018-01-21T04:56:16.199Z,6.1
2018-01-21T04:57:26.243Z,6.03
2018-01-21T04:58:36.282Z,5.99
2018-01-21T04:59:46.327Z,6.03
2018-01-21T05:00:56.372Z,5.91
2018-01-21T05:02:06.426Z,5.89
2018-01-21T05:03:16.204Z,5.89
2018-01-21T05:04:26.257Z,5.87
2018-01-21T05:05:36.042Z,5.84
2018-01-21T05:06:45.832Z,5.82
2018-01-21T05:07:55.610Z,5.75
2018-01-21T05:09:05.551Z,5.8
2018-01-21T05:10:15.593Z,5.75
2018-01-21T05:11:25.378Z,5.77
2018-01-21T05:12:35.153Z,5.84
2018-01-21T05:13:44.943Z,5.78
2018-01-21T05:14:54.716Z,5.75
2018-01-21T05:16:04.765Z,5.77
2018-01-21T05:17:14.555Z,5.77
2018-01-21T05:18:24.342Z,5.81
2018-01-21T05:19:34.394Z,5.75
2018-01-21T05:20:44.181Z,5.84
2018-01-21T05:21:54.214Z,5.78
2018-01-21T05:23:04.253Z,5.77
2018-01-21T05:24:13.514Z,5.77
2018-01-21T05:25:23.297Z,5.77
2018-01-21T05:26:33.339Z,5.75
2018-01-21T05:27:43.377Z,5.64
2018-01-21T05:28:53.426Z,5.7
2018-01-21T05:30:03.489Z,5.62
2018-01-21T05:31:13.541Z,5.69
2018-01-21T05:32:23.316Z,5.8
2018-01-21T05:33:33.360Z,5.66
2018-01-21T05:34:43.140Z,5.72
2018-01-21T05:35:53.186Z,5.69
2018-01-21T05:37:03.444Z,5.72
2018-01-21T05:38:13.234Z,5.6
2018-01-21T05:39:23.012Z,5.6
2018-01-21T05:40:33.068Z,5.62
2018-01-21T05:41:43.119Z,5.6
2018-01-21T05:42:53.204Z,5.6
2018-01-21T05:44:03.254Z,5.54
2018-01-21T05:45:13.339Z,5.59
2018-01-21T05:46:23.374Z,5.59
2018-01-21T05:47:33.164Z,5.48
2018-01-21T05:48:43.255Z,5.54
2018-01-21T05:49:53.305Z,5.55
2018-01-21T05:51:03.082Z,5.42
2018-01-21T05:52:13.117Z,5.41
2018-01-21T05:53:23.153Z,5.44
2018-01-21T05:54:32.942Z,5.42
2018-01-21T05:55:42.978Z,5.34
2018-01-21T05:56:53.033Z,5.26
2018-01-21T05:58:03.067Z,5.34
2018-01-21T05:59:12.594Z,5.3
2018-01-21T06:00:22.705Z,5.41
2018-01-21T06:01:32.775Z,5.33
2018-01-21T06:02:42.558Z,5.34
2018-01-21T06:03:52.606Z,5.3
2018-01-21T06:05:02.650Z,5.24
2018-01-21T06:06:12.739Z,5.16
2018-01-21T06:07:22.835Z,5.21
2018-01-21T06:08:32.613Z,5.06
2018-01-21T06:09:42.713Z,5.09
2018-01-21T06:10:52.766Z,5.03
2018-01-21T06:12:02.864Z,5.09
2018-01-21T06:13:12.933Z,4.95
2018-01-21T06:14:22.718Z,5.02
2018-01-21T06:15:32.757Z,5.03
2018-01-21T06:16:42.786Z,4.94
2018-01-21T06:17:52.844Z,5.03
2018-01-21T06:19:02.363Z,5.1
2018-01-21T06:20:12.408Z,5.02
2018-01-21T06:21:22.199Z,5.02
2018-01-21T06:22:32.233Z,5.06
2018-01-21T06:23:42.333Z,5.13
2018-01-21T06:24:52.360Z,5
2018-01-21T06:26:02.420Z,5.13
2018-01-21T06:27:12.208Z,4.97
2018-01-21T06:28:21.982Z,5.02
2018-01-21T06:29:31.820Z,5
2018-01-21T06:30:41.866Z,5
2018-01-21T06:31:51.907Z,5
2018-01-21T06:33:01.961Z,5.05
2018-01-21T06:34:11.491Z,5.03
2018-01-21T06:35:21.071Z,5
2018-01-21T06:36:31.118Z,5.03
2018-01-21T06:37:41.164Z,4.98
2018-01-21T06:38:50.957Z,5.02
2018-01-21T06:40:00.728Z,5.02
2018-01-21T06:41:10.838Z,5.16
2018-01-21T06:42:20.635Z,5.13
2018-01-21T06:43:30.703Z,5.08
2018-01-21T06:44:40.744Z,5.2
2018-01-21T06:45:50.799Z,5.21
2018-01-21T06:47:00.845Z,5.21
2018-01-21T06:48:10.899Z,5.3
2018-01-21T06:49:20.952Z,5.31
2018-01-21T06:50:30.992Z,5.41
2018-01-21T06:51:40.782Z,5.49
2018-01-21T06:52:50.821Z,5.42
2018-01-21T06:54:00.869Z,5.45
2018-01-21T06:55:10.914Z,5.49
2018-01-21T06:56:20.973Z,5.46
2018-01-21T06:57:31.025Z,5.49
2018-01-21T06:58:40.818Z,5.51
2018-01-21T06:59:50.857Z,5.51
2018-01-21T07:01:00.944Z,5.46
2018-01-21T07:02:10.978Z,5.52
2018-01-21T07:03:21.043Z,5.52
2018-01-21T07:04:31.209Z,5.49
2018-01-21T07:05:41.254Z,5.48
2018-01-21T07:06:51.325Z,5.44
2018-01-21T07:08:01.122Z,5.51
2018-01-21T07:09:10.918Z,5.51
2018-01-21T07:10:21.071Z,5.51
2018-01-21T07:11:30.851Z,5.48
2018-01-21T07:12:40.650Z,5.46
2018-01-21T07:13:50.706Z,5.45
2018-01-21T07:15:00.488Z,5.48
2018-01-21T07:16:10.598Z,5.44
2018-01-21T07:17:20.638Z,5.44
2018-01-21T07:18:30.696Z,5.49
2018-01-21T07:19:40.822Z,5.39
2018-01-21T07:20:50.859Z,5.44
2018-01-21T07:22:00.904Z,5.37
2018-01-21T07:23:10.955Z,5.42
2018-01-21T07:24:20.755Z,5.42
2018-01-21T07:25:30.821Z,5.44
2018-01-21T07:26:40.861Z,5.41
2018-01-21T07:27:50.896Z,5.45
2018-01-21T07:29:00.933Z,5.46
2018-01-21T07:30:11.011Z,5.44
2018-01-21T07:31:21.050Z,5.42
2018-01-21T07:32:31.089Z,5.49
2018-01-21T07:33:41.206Z,5.57
2018-01-21T07:34:51.307Z,5.51
2018-01-21T07:36:01.336Z,5.49
2018-01-21T07:37:11.111Z,5.55
2018-01-21T07:38:21.148Z,5.59
2018-01-21T07:39:30.942Z,5.62
2018-01-21T07:40:40.730Z,5.54
2018-01-21T07:41:50.263Z,5.62
2018-01-21T07:43:00.043Z,5.66
2018-01-21T07:44:09.870Z,5.8
2018-01-21T07:45:20.012Z,5.7
2018-01-21T07:46:29.538Z,5.78
2018-01-21T07:47:39.616Z,5.81
2018-01-21T07:48:49.705Z,5.78
2018-01-21T07:49:59.494Z,5.85
2018-01-21T07:51:09.646Z,5.88
2018-01-21T07:52:19.450Z,5.88
2018-01-21T07:53:29.225Z,5.91
2018-01-21T07:54:39.257Z,5.89
2018-01-21T07:55:49.294Z,5.89
2018-01-21T07:56:59.379Z,5.89
2018-01-21T07:58:09.162Z,5.91
2018-01-21T07:59:19.869Z,5.99
2018-01-21T08:00:29.932Z,5.82
2018-01-21T08:01:39.988Z,5.85
2018-01-21T08:02:50.026Z,5.8
2018-01-21T08:03:59.828Z,5.8
2018-01-21T08:05:09.875Z,5.78
2018-01-21T08:06:19.941Z,5.82
2018-01-21T08:07:29.471Z,5.75
2018-01-21T08:08:39.558Z,5.81
2018-01-21T08:09:49.356Z,5.75
2018-01-21T08:10:59.398Z,5.7
2018-01-21T08:12:09.505Z,5.77
2018-01-21T08:13:19.550Z,5.77
2018-01-21T08:14:29.651Z,5.77
2018-01-21T08:15:39.517Z,5.82
2018-01-21T08:16:49.576Z,5.92
2018-01-21T08:17:59.616Z,5.89
2018-01-21T08:19:09.670Z,5.95
2018-01-21T08:20:19.711Z,6
2018-01-21T08:21:29.764Z,6.05
2018-01-21T08:22:39.812Z,6.17
2018-01-21T08:23:49.862Z,6.14
2018-01-21T08:24:59.912Z,6.1
2018-01-21T08:26:09.948Z,6.07
2018-01-21T08:27:20.001Z,6.1
2018-01-21T08:28:30.044Z,5.99
2018-01-21T08:29:40.106Z,6.07
2018-01-21T08:30:50.157Z,5.99
2018-01-21T08:32:00.203Z,6.1
2018-01-21T08:33:10.254Z,6.02
2018-01-21T08:34:20.310Z,6.06
2018-01-21T08:35:30.115Z,5.99
2018-01-21T08:36:39.898Z,6.06
2018-01-21T08:37:49.994Z,6.02
2018-01-21T08:38:59.794Z,5.95
2018-01-21T08:40:09.840Z,5.99
2018-01-21T08:41:19.897Z,6.06
2018-01-21T08:42:29.684Z,6
2018-01-21T08:43:39.744Z,5.99
2018-01-21T08:44:49.807Z,6.06
2018-01-21T08:46:00.895Z,6.06
2018-01-21T08:47:10.951Z,6.1
2018-01-21T08:48:21.010Z,6.07
2018-01-21T08:49:31.139Z,6.14
2018-01-21T08:50:41.792Z,6.24
2018-01-21T08:51:51.867Z,6.36
2018-01-21T08:53:01.953Z,6.28
2018-01-21T08:54:12.023Z,6.34
2018-01-21T08:55:22.197Z,6.31
2018-01-21T08:56:32.270Z,6.37
2018-01-21T08:57:42.066Z,6.4
2018-01-21T08:58:51.888Z,6.39
2018-01-21T09:00:01.696Z,6.4
2018-01-21T09:01:11.503Z,6.42
2018-01-21T09:02:21.568Z,6.52
2018-01-21T09:03:31.366Z,6.49
2018-01-21T09:04:41.491Z,6.54
2018-01-21T09:05:51.536Z,6.58
2018-01-21T09:07:01.606Z,6.52
2018-01-21T09:08:11.717Z,6.6
2018-01-21T09:09:21.807Z,6.68
2018-01-21T09:10:31.878Z,6.61
2018-01-21T09:11:41.926Z,6.75
2018-01-21T09:12:51.989Z,6.83
2018-01-21T09:14:02.170Z,6.82
2018-01-21T09:15:12.227Z,6.75
2018-01-21T09:16:22.285Z,6.91
2018-01-21T09:17:32.083Z,6.97
2018-01-21T09:18:41.878Z,7.03
2018-01-21T09:19:52.432Z,7.04
2018-01-21T09:21:02.492Z,7.04
2018-01-21T09:22:12.028Z,6.97
2018-01-21T09:23:21.566Z,7.05
2018-01-21T09:24:31.479Z,6.98
2018-01-21T09:25:41.581Z,7
2018-01-21T09:26:51.638Z,7.15
2018-01-21T09:28:01.423Z,7.05
2018-01-21T09:29:11.480Z,7.21
2018-01-21T09:30:21.317Z,7.22
2018-01-21T09:31:31.381Z,7.3
2018-01-21T09:32:41.494Z,7.19
2018-01-21T09:33:51.026Z,7.36
2018-01-21T09:35:01.192Z,7.34
2018-01-21T09:36:11.334Z,7.34
2018-01-21T09:37:21.123Z,7.52
2018-01-21T09:38:31.180Z,7.52
2018-01-21T09:39:41.219Z,7.64
2018-01-21T09:40:51.018Z,7.74
2018-01-21T09:42:01.056Z,7.8
2018-01-21T09:43:11.114Z,7.73
2018-01-21T09:44:20.903Z,7.61
2018-01-21T09:45:30.937Z,7.64
2018-01-21T09:46:40.989Z,7.56
2018-01-21T09:47:51.036Z,7.48
2018-01-21T09:49:01.098Z,7.51
2018-01-21T09:50:11.161Z,7.58
2018-01-21T09:51:21.226Z,7.71
2018-01-21T09:52:31.292Z,7.86
2018-01-21T09:53:41.394Z,7.82
2018-01-21T09:54:51.189Z,7.86
2018-01-21T09:56:00.984Z,7.8
2018-01-21T09:57:10.965Z,7.77
2018-01-21T09:58:21.168Z,7.74
2018-01-21T09:59:32.131Z,7.82
2018-01-21T10:00:42.199Z,7.73
2018-01-21T10:01:52.288Z,7.71
2018-01-21T10:03:02.442Z,7.78
2018-01-21T10:04:12.497Z,7.88
2018-01-21T10:05:22.294Z,7.93
2018-01-21T10:06:32.345Z,7.99
2018-01-21T10:07:41.885Z,7.89
2018-01-21T10:08:51.984Z,7.96
2018-01-21T10:10:01.798Z,7.91
2018-01-21T10:11:11.598Z,7.92
2018-01-21T10:12:21.661Z,7.96
2018-01-21T10:13:31.712Z,8.06
2018-01-21T10:14:41.753Z,8.1
2018-01-21T10:15:51.562Z,8.21
2018-01-21T10:17:01.422Z,8.31
2018-01-21T10:18:11.471Z,8.47
2018-01-21T10:19:21.271Z,8.43
2018-01-21T10:20:31.328Z,8.43
2018-01-21T10:21:41.392Z,8.4
2018-01-21T10:22:51.497Z,8.46
2018-01-21T10:24:00.772Z,8.39
2018-01-21T10:25:10.845Z,8.28
2018-01-21T10:26:20.926Z,8.19
2018-01-21T10:27:30.972Z,8.04
2018-01-21T10:28:40.785Z,7.99
2018-01-21T10:29:50.637Z,7.99
2018-01-21T10:31:00.441Z,8.04
2018-01-21T10:32:10.489Z,7.98
2018-01-21T10:33:20.287Z,7.91
2018-01-21T10:34:30.402Z,8.06
2018-01-21T10:35:40.448Z,7.88
2018-01-21T10:36:50.502Z,7.91
2018-01-21T10:38:00.322Z,7.88
2018-01-21T10:39:10.129Z,7.96
2018-01-21T10:40:19.734Z,7.98
2018-01-21T10:41:29.842Z,7.93
2018-01-21T10:42:39.904Z,7.92
2018-01-21T10:43:50.048Z,7.98
2018-01-21T10:45:00.123Z,7.89
2018-01-21T10:46:10.237Z,8.01
2018-01-21T10:47:20.337Z,7.86
2018-01-21T10:48:29.661Z,7.95
2018-01-21T10:49:39.704Z,7.83
2018-01-21T10:50:49.766Z,7.91
2018-01-21T10:51:59.929Z,7.75
2018-01-21T10:53:09.988Z,7.63
2018-01-21T10:54:20.075Z,7.58
2018-01-21T10:55:30.132Z,7.64
2018-01-21T10:56:39.911Z,7.63
2018-01-21T10:57:49.990Z,7.61
2018-01-21T10:59:00.054Z,7.73
2018-01-21T11:00:10.092Z,7.77
2018-01-21T11:01:20.094Z,7.74
2018-01-21T11:02:30.256Z,7.74
2018-01-21T11:03:40.341Z,7.73
2018-01-21T11:04:50.400Z,7.83
2018-01-21T11:06:00.462Z,7.85
2018-01-21T11:07:10.530Z,7.89
2018-01-21T11:08:20.316Z,7.93
2018-01-21T11:09:30.373Z,8.03
2018-01-21T11:10:40.415Z,8.07
2018-01-21T11:11:50.200Z,8.04
2018-01-21T11:13:00.272Z,8.01
2018-01-21T11:14:10.679Z,7.92
2018-01-21T11:15:20.722Z,7.99
2018-01-21T11:16:30.248Z,8.09
2018-01-21T11:17:40.044Z,8.21
2018-01-21T11:18:50.092Z,8.22
2018-01-21T11:20:00.198Z,8.14
2018-01-21T11:21:10.265Z,8.24
2018-01-21T11:22:20.305Z,8.04
2018-01-21T11:23:30.366Z,7.89
2018-01-21T11:24:40.438Z,7.95
2018-01-21T11:25:50.509Z,7.85
2018-01-21T11:27:00.563Z,7.91
2018-01-21T11:28:10.615Z,7.77
2018-01-21T11:29:20.696Z,7.7
2018-01-21T11:30:30.753Z,7.58
2018-01-21T11:31:40.865Z,7.55
2018-01-21T11:32:50.929Z,7.47
2018-01-21T11:34:01.006Z,7.48
2018-01-21T11:35:11.073Z,7.64
2018-01-21T11:36:21.173Z,7.64
2018-01-21T11:37:31.294Z,7.64
2018-01-21T11:38:41.136Z,7.7
2018-01-21T11:39:51.036Z,7.71
2018-01-21T11:41:01.089Z,7.8
2018-01-21T11:42:10.632Z,7.89
2018-01-21T11:43:20.820Z,7.99
2018-01-21T11:44:30.870Z,8.1
2018-01-21T11:45:40.921Z,8.14
2018-01-21T11:46:51.555Z,8.19
2018-01-21T11:48:01.623Z,8.16
2018-01-21T11:49:11.762Z,8.22
2018-01-21T11:50:21.842Z,8.29
2018-01-21T11:51:32.466Z,8.29
2018-01-21T11:52:42.540Z,8.21
2018-01-21T11:53:52.078Z,8.16
2018-01-21T11:55:01.925Z,8.16
2018-01-21T11:56:12.017Z,8.07
2018-01-21T11:57:22.096Z,8.04
2018-01-21T11:58:32.962Z,7.95
2018-01-21T11:59:43.036Z,7.99
2018-01-21T12:00:53.949Z,7.96
2018-01-21T12:02:03.763Z,7.91
2018-01-21T12:03:13.820Z,7.85
2018-01-21T12:04:24.722Z,7.71
2018-01-21T12:05:34.812Z,7.54
2018-01-21T12:06:44.882Z,7.49
2018-01-21T12:07:54.990Z,7.39
2018-01-21T12:09:05.083Z,7.44
2018-01-21T12:10:15.149Z,7.33
2018-01-21T12:11:25.227Z,7.37
2018-01-21T12:12:35.345Z,7.39
2018-01-21T12:13:45.239Z,7.41
2018-01-21T12:14:55.319Z,7.41
2018-01-21T12:16:05.130Z,7.31
2018-01-21T12:17:15.385Z,7.34
2018-01-21T12:18:25.450Z,7.37
2018-01-21T12:19:36.107Z,7.34
2018-01-21T12:20:46.225Z,7.37
2018-01-21T12:21:56.994Z,7.36
2018-01-21T12:23:06.802Z,7.48
2018-01-21T12:24:16.663Z,7.48
2018-01-21T12:25:26.739Z,7.55
2018-01-21T12:26:36.526Z,7.55
2018-01-21T12:27:46.575Z,7.49
2018-01-21T12:28:56.910Z,7.52
2018-01-21T12:30:07.023Z,7.47
2018-01-21T12:31:17.970Z,7.48
2018-01-21T12:32:28.023Z,7.4
2018-01-21T12:33:38.071Z,7.36
2018-01-21T12:34:49.940Z,7.37
2018-01-21T12:36:00.022Z,7.37
2018-01-21T12:37:10.094Z,7.29
2018-01-21T12:38:19.899Z,7.36
2018-01-21T12:39:30.178Z,7.22
2018-01-21T12:40:40.262Z,7.22
2018-01-21T12:41:50.373Z,7.09
2018-01-21T12:43:00.466Z,7.03
2018-01-21T12:44:10.567Z,7.01
2018-01-21T12:45:20.424Z,6.97
2018-01-21T12:46:30.491Z,7.05
2018-01-21T12:47:40.602Z,7.01
2018-01-21T12:48:50.705Z,7
2018-01-21T12:50:00.769Z,7.15
2018-01-21T12:51:10.992Z,7.03
2018-01-21T12:52:20.816Z,6.95
2018-01-21T12:53:30.623Z,7.01
2018-01-21T12:54:40.738Z,6.8
2018-01-21T12:55:50.835Z,6.76
2018-01-21T12:57:00.888Z,6.82
2018-01-21T12:58:11.011Z,6.8
2018-01-21T12:59:21.107Z,6.79
2018-01-21T13:00:31.164Z,6.72
2018-01-21T13:01:41.236Z,6.72
2018-01-21T13:02:51.297Z,6.68
2018-01-21T13:04:01.362Z,6.68
2018-01-21T13:05:11.423Z,6.52
2018-01-21T13:06:21.500Z,6.58
2018-01-21T13:07:31.601Z,6.62
2018-01-21T13:08:41.700Z,6.64
2018-01-21T13:09:51.764Z,6.64
2018-01-21T13:11:01.551Z,6.67
2018-01-21T13:12:11.629Z,6.65
2018-01-21T13:13:22.310Z,6.72
2018-01-21T13:14:32.509Z,6.72
2018-01-21T13:15:42.562Z,6.64
2018-01-21T13:16:52.387Z,6.79
2018-01-21T13:18:02.463Z,6.79
2018-01-21T13:19:12.520Z,6.73
2018-01-21T13:20:23.448Z,6.67
2018-01-21T13:21:33.516Z,6.76
2018-01-21T13:22:43.403Z,6.65
2018-01-21T13:23:53.473Z,6.67
2018-01-21T13:25:03.015Z,6.68
2018-01-21T13:26:12.868Z,6.65
2018-01-21T13:27:22.687Z,6.68
2018-01-21T13:28:32.778Z,6.65
2018-01-21T13:29:42.849Z,6.75
2018-01-21T13:30:52.910Z,6.7
2018-01-21T13:32:03.068Z,6.62
2018-01-21T13:33:13.512Z,6.62
2018-01-21T13:34:23.477Z,6.68
2018-01-21T13:35:33.289Z,6.68
2018-01-21T13:36:43.383Z,6.7
2018-01-21T13:37:53.294Z,6.67
2018-01-21T13:39:04.594Z,6.68
2018-01-21T13:40:14.694Z,6.62
2018-01-21T13:41:24.501Z,6.67
2018-01-21T13:42:34.345Z,6.58
2018-01-21T13:43:44.150Z,6.55
2018-01-21T13:44:54.223Z,6.55
2018-01-21T13:46:04.357Z,6.51
2018-01-21T13:47:14.450Z,6.61
2018-01-21T13:48:24.508Z,6.61
2018-01-21T13:49:34.390Z,6.68
2018-01-21T13:50:44.463Z,6.6
2018-01-21T13:51:54.287Z,6.57
2018-01-21T13:53:04.368Z,6.6
2018-01-21T13:54:14.452Z,6.55
2018-01-21T13:55:24.398Z,6.68
2018-01-21T13:56:34.481Z,6.67
2018-01-21T13:57:44.568Z,6.65
2018-01-21T13:58:54.646Z,6.7
2018-01-21T14:00:04.480Z,6.73
2018-01-21T14:01:14.585Z,6.8
2018-01-21T14:02:24.685Z,6.76
2018-01-21T14:03:34.846Z,6.86
2018-01-21T14:04:44.658Z,6.83
2018-01-21T14:05:54.181Z,6.83
2018-01-21T14:07:04.350Z,6.94
2018-01-21T14:08:14.625Z,6.95
2018-01-21T14:09:24.195Z,6.88
2018-01-21T14:10:34.484Z,6.9
2018-01-21T14:11:44.296Z,6.85
2018-01-21T14:12:54.414Z,6.93
2018-01-21T14:14:05.145Z,6.97
2018-01-21T14:15:15.236Z,6.91
2018-01-21T14:16:25.337Z,6.98
2018-01-21T14:17:36.855Z,7
2018-01-21T14:18:47.093Z,7.01
2018-01-21T14:19:57.160Z,7.01
2018-01-21T14:21:07.302Z,6.94
2018-01-21T14:22:17.518Z,6.98
2018-01-21T14:23:27.672Z,6.97
2018-01-21T14:24:37.910Z,6.93
2018-01-21T14:25:48.059Z,6.94
2018-01-21T14:26:59.437Z,6.95
2018-01-21T14:28:09.573Z,7.03
2018-01-21T14:29:19.706Z,6.97
2018-01-21T14:30:30.581Z,6.88
2018-01-21T14:31:41.493Z,6.86
2018-01-21T14:32:51.860Z,6.8
2018-01-21T14:34:03.892Z,6.79
2018-01-21T14:35:14.426Z,6.7
2018-01-21T14:36:24.751Z,6.75
2018-01-21T14:37:34.650Z,6.67
2018-01-21T14:38:44.732Z,6.62
2018-01-21T14:39:54.281Z,6.51
2018-01-21T14:41:04.178Z,6.55
2018-01-21T14:50:34.362Z,6.46
2018-01-21T14:51:44.279Z,6.34
2018-01-21T14:52:54.366Z,6.29
2018-01-21T14:54:04.616Z,6.31
2018-01-21T14:55:16.007Z,6.25
2018-01-21T14:56:25.904Z,6.15
2018-01-21T14:57:36.026Z,6.2
2018-01-21T14:58:45.873Z,6.03
2018-01-21T14:59:56.475Z,6
2018-01-21T15:01:06.793Z,5.92
2018-01-21T15:02:16.882Z,5.91
2018-01-21T15:03:26.991Z,5.85
2018-01-21T15:04:37.476Z,5.84
2018-01-21T15:05:47.957Z,5.78
2018-01-21T15:06:58.246Z,5.92
2018-01-21T15:10:40.592Z,5.89
2018-01-21T15:11:50.594Z,5.87
2018-01-21T15:13:00.155Z,5.78
2018-01-21T15:14:10.083Z,5.81
2018-01-21T15:15:20.167Z,5.8
2018-01-21T15:16:30.241Z,5.78
2018-01-21T15:17:40.459Z,5.75
2018-01-21T15:18:50.536Z,5.75
2018-01-21T15:20:00.671Z,5.77
2018-01-21T15:21:11.497Z,5.81
2018-01-21T15:22:21.622Z,5.82
2018-01-21T15:23:31.732Z,5.85
2018-01-21T15:24:41.870Z,5.84
2018-01-21T15:25:51.998Z,5.84
2018-01-21T15:27:01.900Z,5.81
2018-01-21T15:28:12.067Z,5.78
2018-01-21T15:29:22.145Z,5.78
2018-01-21T15:30:32.334Z,5.81
2018-01-21T15:31:42.531Z,5.77
2018-01-21T15:32:53.766Z,5.8
2018-01-21T15:34:03.830Z,5.85
2018-01-21T15:35:13.893Z,5.87
2018-01-21T15:36:24.024Z,5.85
2018-01-21T15:37:34.462Z,5.8
2018-01-21T15:38:44.676Z,5.78
2018-01-21T15:39:54.754Z,5.78
2018-01-21T15:41:04.855Z,5.82
2018-01-21T15:42:14.951Z,5.67
2018-01-21T15:43:25.147Z,5.75
2018-01-21T15:44:35.242Z,5.7
2018-01-21T15:45:45.360Z,5.66
2018-01-21T15:46:55.556Z,5.64
2018-01-21T15:48:05.631Z,5.67
2018-01-21T15:49:15.548Z,5.62
2018-01-21T15:50:26.684Z,5.66
2018-01-21T15:51:36.777Z,5.69
2018-01-21T15:52:46.341Z,5.69
2018-01-21T15:53:56.452Z,5.6
2018-01-21T15:55:06.527Z,5.81
2018-01-21T15:56:16.596Z,5.64
2018-01-21T15:57:26.720Z,5.67
2018-01-21T15:58:36.543Z,5.7
2018-01-21T15:59:46.617Z,5.8
2018-01-21T16:00:56.681Z,5.77
2018-01-21T16:02:06.846Z,5.82
2018-01-21T16:03:19.291Z,5.78
2018-01-21T16:04:29.871Z,5.8
2018-01-21T16:05:39.992Z,5.85
2018-01-21T16:06:50.085Z,5.69
2018-01-21T16:07:59.887Z,5.67
2018-01-21T16:09:09.725Z,5.77
2018-01-21T16:10:19.807Z,5.72
2018-01-21T16:11:29.885Z,5.67
2018-01-21T16:12:39.969Z,5.72
2018-01-21T16:13:50.088Z,5.66
2018-01-21T16:15:00.159Z,5.77
2018-01-21T16:16:10.254Z,5.77
2018-01-21T16:17:20.336Z,5.8